CZFM

Details ICAO CZFM (ZFM)
Name FORT MCPHERSON
Region Canada
Timezone America/Yellowknife (UTC-7.0)
Plans Departing 0
Arriving 2
Stats Elevation 116 ft / 35 m (AMSL)
Location 67.407780° -134.860275°
Runways 1
Magnetic Variation 21.265° E
Sunrise 2017-12-12 20:14:39 UTC / 2017-12-12 13:14:39 Local
Sunset 2017-12-12 21:34:54 UTC / 2017-12-12 14:34:54 Local
Advertisement - Login to hide

Runways

ID Width Length Bearing (true) Bearing (mag) Surface Threshold Offset Overrun Length
11 100 ft / 30 m 3,423 ft / 1,043 m 140.37° 119.10° Gravel 0 ft / 0 m 0 ft / 0 m
29 100 ft / 30 m 3,423 ft / 1,043 m 320.38° 299.11° Gravel 0 ft / 0 m 0 ft / 0 m

Map

Weather


0- 5 10 15 20 25 30 35+ Temperature / ° C

Clouds and Precipitation
Forecast for 2017-12-13 06:00 UTC. Updated 17 minutes ago

Ground ~20,000 ft ~40,000 ft Winds

METAR

Not found

TAF

TAF AMD CZFM 122110Z 1221/1224 VRB03KT P6SM BKN020 TEMPO 1221/1224 BKN030 RMK NXT FCST WILL BE ISSUED AT 131545Z

Frequencies

Unicom 122.10 MHz MANDATORY FREQ
Warning: Do not use this data for real-world aviation or navigation. No guarantee of current accuracy is given.